createdAt,value
2022-11-19T00:00:25.457Z,-5.64
2022-11-19T00:03:33.568Z,-5.48
2022-11-19T00:06:36.230Z,-5.39
2022-11-19T00:09:38.517Z,-5.36
2022-11-19T00:12:57.217Z,-5.45
2022-11-19T00:16:14.494Z,-5.49
2022-11-19T00:19:17.215Z,-5.65
2022-11-19T00:22:19.596Z,-5.69
2022-11-19T00:25:23.417Z,-5.67
2022-11-19T00:28:26.112Z,-5.63
2022-11-19T00:31:31.805Z,-5.70
2022-11-19T00:34:34.884Z,-5.59
2022-11-19T00:37:37.923Z,-5.50
2022-11-19T00:40:40.891Z,-5.51
2022-11-19T00:43:52.653Z,-5.48
2022-11-19T00:46:55.287Z,-5.43
2022-11-19T00:49:57.510Z,-5.35
2022-11-19T00:53:00.261Z,-5.40
2022-11-19T00:56:04.355Z,-5.33
2022-11-19T00:59:06.840Z,-5.24
2022-11-19T01:02:09.555Z,-5.27
2022-11-19T01:05:12.234Z,-5.37
2022-11-19T01:08:14.866Z,-5.20
2022-11-19T01:11:23.427Z,-5.23
2022-11-19T01:14:26.264Z,-5.38
2022-11-19T01:17:29.013Z,-5.26
2022-11-19T01:20:31.823Z,-5.24
2022-11-19T01:23:34.730Z,-5.12
2022-11-19T01:26:40.518Z,-5.14
2022-11-19T01:29:45.320Z,-5.15
2022-11-19T01:32:47.884Z,-5.10
2022-11-19T01:36:01.462Z,-5.12
2022-11-19T01:39:04.251Z,-5.05
2022-11-19T01:42:26.569Z,-4.96
2022-11-19T01:45:31.775Z,-4.92
2022-11-19T01:48:38.208Z,-4.80
2022-11-19T01:51:50.387Z,-4.75
2022-11-19T01:54:55.013Z,-4.78
2022-11-19T01:58:01.302Z,-5.03
2022-11-19T02:01:04.050Z,-4.93
2022-11-19T02:04:08.306Z,-4.68
2022-11-19T02:07:11.142Z,-4.61
2022-11-19T02:10:14.771Z,-4.59
2022-11-19T02:13:26.332Z,-4.51
2022-11-19T02:16:45.278Z,-4.19
2022-11-19T02:20:08.685Z,-4.08
2022-11-19T02:23:26.564Z,-4.15
2022-11-19T02:26:50.829Z,-4.21
2022-11-19T02:29:55.963Z,-4.35
2022-11-19T02:33:36.958Z,-4.32
2022-11-19T02:37:20.073Z,-4.15
2022-11-19T02:40:37.650Z,-3.85
2022-11-19T02:43:42.369Z,-3.72
2022-11-19T02:46:48.407Z,-3.61
2022-11-19T02:49:54.349Z,-3.56
2022-11-19T02:52:57.185Z,-3.59
2022-11-19T02:56:12.413Z,-3.81
2022-11-19T02:59:35.887Z,-3.63
2022-11-19T03:03:01.206Z,-3.92
2022-11-19T03:06:08.076Z,-3.88
2022-11-19T03:09:10.996Z,-3.91
2022-11-19T03:12:34.901Z,-4.11
2022-11-19T03:16:01.449Z,-4.23
2022-11-19T03:19:24.003Z,-4.07
2022-11-19T03:22:30.565Z,-4.02
2022-11-19T03:25:40.263Z,-3.93
2022-11-19T03:28:43.633Z,-3.83
2022-11-19T03:31:53.888Z,-3.86
2022-11-19T03:34:59.488Z,-3.99
2022-11-19T03:38:05.410Z,-3.92
2022-11-19T03:41:08.737Z,-3.91
2022-11-19T03:44:33.780Z,-4.32
2022-11-19T03:47:38.476Z,-3.87
2022-11-19T03:50:48.166Z,-3.76
2022-11-19T03:53:50.961Z,-3.75
2022-11-19T03:56:53.958Z,-3.74
2022-11-19T03:59:56.229Z,-3.90
2022-11-19T04:02:59.061Z,-3.83
2022-11-19T04:06:02.963Z,-3.91
2022-11-19T04:09:05.891Z,-3.82
2022-11-19T04:12:09.470Z,-3.77
2022-11-19T04:15:15.901Z,-3.79
2022-11-19T04:18:23.540Z,-3.71
2022-11-19T04:21:26.398Z,-3.81
2022-11-19T04:24:30.732Z,-3.73
2022-11-19T04:27:33.316Z,-3.74
2022-11-19T04:30:35.893Z,-3.74
2022-11-19T04:33:38.388Z,-3.72
2022-11-19T04:36:42.287Z,-3.76
2022-11-19T04:39:44.879Z,-3.68
2022-11-19T04:42:47.631Z,-3.64
2022-11-19T04:45:49.936Z,-3.69
2022-11-19T04:48:53.040Z,-3.68
2022-11-19T04:51:55.794Z,-3.70
2022-11-19T04:54:58.501Z,-3.75
2022-11-19T04:58:01.192Z,-3.65
2022-11-19T05:01:05.364Z,-3.62
2022-11-19T05:04:07.954Z,-3.66
2022-11-19T05:07:10.477Z,-3.67
2022-11-19T05:10:12.939Z,-3.79
2022-11-19T05:13:15.372Z,-3.76
2022-11-19T05:16:17.740Z,-3.71
2022-11-19T05:19:20.818Z,-3.66
2022-11-19T05:22:23.694Z,-3.81
2022-11-19T05:25:26.641Z,-3.78
2022-11-19T05:28:38.596Z,-3.81
2022-11-19T05:31:42.146Z,-3.81
2022-11-19T05:34:44.943Z,-3.73
2022-11-19T05:37:50.284Z,-3.77
2022-11-19T05:40:57.555Z,-3.78
2022-11-19T05:43:59.989Z,-3.67
2022-11-19T05:47:03.074Z,-3.62
2022-11-19T05:50:07.126Z,-3.66
2022-11-19T05:53:09.635Z,-3.77
2022-11-19T05:56:12.184Z,-3.68
2022-11-19T05:59:15.828Z,-3.75
2022-11-19T06:02:18.300Z,-3.56
2022-11-19T06:05:21.677Z,-3.58
2022-11-19T06:08:24.322Z,-3.51
2022-11-19T06:11:45.521Z,-3.47
2022-11-19T06:14:47.876Z,-3.43
2022-11-19T06:17:50.976Z,-3.60
2022-11-19T06:20:53.496Z,-3.44
2022-11-19T06:23:55.835Z,-3.40
2022-11-19T06:26:58.331Z,-3.34
2022-11-19T06:30:01.484Z,-3.41
2022-11-19T06:33:04.491Z,-3.38
2022-11-19T06:36:07.524Z,-3.43
2022-11-19T06:39:10.308Z,-3.50
2022-11-19T06:42:33.505Z,-3.44
2022-11-19T06:45:36.157Z,-3.54
2022-11-19T06:48:38.940Z,-3.35
2022-11-19T06:51:42.543Z,-3.46
2022-11-19T06:54:44.980Z,-3.51
2022-11-19T06:57:47.329Z,-3.47
2022-11-19T07:00:49.905Z,-3.43
2022-11-19T07:03:53.223Z,-3.41
2022-11-19T07:06:56.001Z,-3.51
2022-11-19T07:09:58.472Z,-3.33
2022-11-19T07:13:02.270Z,-3.46
2022-11-19T07:16:05.162Z,-3.32
2022-11-19T07:19:10.519Z,-3.14
2022-11-19T07:22:14.924Z,-3.20
2022-11-19T07:25:17.947Z,-3.18
2022-11-19T07:28:20.772Z,-3.15
2022-11-19T07:31:31.335Z,-3.07
2022-11-19T07:34:34.482Z,-3.11
2022-11-19T07:37:37.727Z,-3.06
2022-11-19T07:40:40.019Z,-3.18
2022-11-19T07:43:42.482Z,-3.15
2022-11-19T07:46:45.527Z,-3.07
2022-11-19T07:49:48.193Z,-3.04
2022-11-19T07:52:51.024Z,-2.94
2022-11-19T07:55:56.260Z,-3.15
2022-11-19T07:59:01.939Z,-3.08
2022-11-19T08:02:04.702Z,-3.01
2022-11-19T08:05:07.302Z,-3.13
2022-11-19T08:08:10.764Z,-3.04
2022-11-19T08:11:15.921Z,-2.93
2022-11-19T08:14:19.752Z,-2.89
2022-11-19T08:17:40.979Z,-2.73
2022-11-19T08:20:45.634Z,-2.72
2022-11-19T08:23:47.943Z,-2.57
2022-11-19T08:26:51.079Z,-2.57
2022-11-19T08:29:53.746Z,-2.52
2022-11-19T08:32:56.125Z,-2.42
2022-11-19T08:35:58.716Z,-2.34
2022-11-19T08:39:02.554Z,-2.41
2022-11-19T08:42:24.635Z,-2.63
2022-11-19T08:45:28.721Z,-2.34
2022-11-19T08:48:31.311Z,-2.57
2022-11-19T08:51:35.060Z,-2.42
2022-11-19T08:54:37.422Z,-2.37
2022-11-19T08:57:39.857Z,-2.52
2022-11-19T09:00:42.576Z,-2.58
2022-11-19T09:03:45.333Z,-2.54
2022-11-19T09:06:47.662Z,-2.43
2022-11-19T09:09:50.312Z,-2.45
2022-11-19T09:12:53.387Z,-2.36
2022-11-19T09:15:56.200Z,-2.60
2022-11-19T09:19:01.607Z,-2.63
2022-11-19T09:22:04.483Z,-2.38
2022-11-19T09:25:09.672Z,-2.36
2022-11-19T09:28:12.546Z,-2.37
2022-11-19T09:31:19.369Z,-2.43
2022-11-19T09:34:22.633Z,-2.38
2022-11-19T09:37:25.630Z,-2.48
2022-11-19T09:40:28.544Z,-2.51
2022-11-19T09:43:59.956Z,-2.55
2022-11-19T09:47:48.280Z,-2.45
2022-11-19T09:51:00.236Z,-2.23
2022-11-19T09:54:07.951Z,-2.04
2022-11-19T09:57:15.569Z,-1.96
2022-11-19T10:00:22.259Z,-2.12
2022-11-19T10:03:32.863Z,-2.06
2022-11-19T10:06:47.035Z,-1.88
2022-11-19T10:09:56.869Z,-1.93
2022-11-19T10:13:45.234Z,-1.80
2022-11-19T10:16:52.979Z,-1.70
2022-11-19T10:20:19.473Z,-1.30
2022-11-19T10:23:28.406Z,-1.40
2022-11-19T10:26:40.969Z,-1.64
2022-11-19T10:29:43.397Z,-1.87
2022-11-19T10:33:06.013Z,-2.06
2022-11-19T10:36:11.617Z,-2.18
2022-11-19T10:39:32.127Z,-2.18
2022-11-19T10:42:43.294Z,-2.03
2022-11-19T10:45:46.626Z,-2.02
2022-11-19T10:48:52.950Z,-1.99
2022-11-19T10:51:55.331Z,-2.05
2022-11-19T10:55:03.581Z,-1.98
2022-11-19T10:58:16.272Z,-2.07
2022-11-19T11:01:39.506Z,-1.82
2022-11-19T11:05:20.708Z,-1.84
2022-11-19T11:08:23.721Z,-1.98
2022-11-19T11:11:51.290Z,-1.83
2022-11-19T11:14:54.477Z,-2.23
2022-11-19T11:18:07.827Z,-2.00
2022-11-19T11:21:21.680Z,-2.06
2022-11-19T11:24:33.299Z,-2.09
2022-11-19T11:27:36.341Z,-2.13
2022-11-19T11:30:39.567Z,-2.37
2022-11-19T11:33:57.036Z,-1.95
2022-11-19T11:37:05.366Z,-2.17
2022-11-19T11:40:14.814Z,-2.05
2022-11-19T11:43:19.195Z,-1.86
2022-11-19T11:46:21.664Z,-1.91
2022-11-19T11:49:38.564Z,-1.84
2022-11-19T11:52:46.376Z,-1.91
2022-11-19T11:55:57.621Z,-1.70
2022-11-19T11:59:16.383Z,-1.61
2022-11-19T12:02:33.004Z,-1.47
2022-11-19T12:05:50.763Z,-1.50
2022-11-19T12:09:31.246Z,-2.01
2022-11-19T12:12:39.875Z,-1.81
2022-11-19T12:16:08.688Z,-1.89
2022-11-19T12:19:22.959Z,-1.83
2022-11-19T12:22:32.211Z,-1.52
2022-11-19T12:25:42.176Z,-1.61
2022-11-19T12:29:13.587Z,-1.63
2022-11-19T12:32:50.912Z,-1.67
2022-11-19T12:36:18.031Z,-1.73
2022-11-19T13:23:06.469Z,-2.85
2022-11-19T13:26:11.897Z,-2.84
2022-11-19T13:29:28.698Z,-2.77
2022-11-19T13:32:42.918Z,-2.82
2022-11-19T13:36:08.925Z,-2.88
2022-11-19T13:39:27.445Z,-2.95
2022-11-19T13:43:04.213Z,-2.86
2022-11-19T13:46:25.683Z,-2.98
2022-11-19T13:49:32.879Z,-3.10
2022-11-19T13:53:10.785Z,-3.03
2022-11-19T13:56:15.676Z,-3.09
2022-11-19T13:59:27.233Z,-3.09
2022-11-19T14:03:08.243Z,-3.02
2022-11-19T14:06:23.032Z,-3.03
2022-11-19T14:09:50.870Z,-3.34
2022-11-19T14:12:56.635Z,-3.34
2022-11-19T14:16:42.466Z,-3.20
2022-11-19T14:20:16.212Z,-3.31
2022-11-19T14:23:56.392Z,-3.28
2022-11-19T14:27:17.427Z,-3.03
2022-11-19T14:30:21.855Z,-2.86
2022-11-19T14:33:58.289Z,-3.17
2022-11-19T14:37:17.052Z,-3.31
2022-11-19T14:40:23.650Z,-3.42
2022-11-19T14:43:45.656Z,-3.30
2022-11-19T14:46:49.597Z,-3.45
2022-11-19T14:49:56.086Z,-3.33
2022-11-19T14:53:00.166Z,-3.26
2022-11-19T14:56:11.915Z,-3.02
2022-11-19T14:59:17.149Z,-3.11
2022-11-19T15:02:38.158Z,-3.12
2022-11-19T15:05:42.599Z,-3.33
2022-11-19T15:09:00.945Z,-3.42
2022-11-19T15:12:04.290Z,-3.27
2022-11-19T15:15:25.205Z,-3.25
2022-11-19T15:18:45.653Z,-3.24
2022-11-19T15:22:19.713Z,-3.25
2022-11-19T15:25:25.104Z,-3.36
2022-11-19T15:28:55.568Z,-3.22
2022-11-19T15:32:09.067Z,-3.27
2022-11-19T15:35:26.591Z,-3.21
2022-11-19T15:38:54.743Z,-3.32
2022-11-19T15:42:02.334Z,-3.16
2022-11-19T15:45:18.508Z,-3.01
2022-11-19T15:48:23.736Z,-3.12
2022-11-19T15:51:27.114Z,-3.22
2022-11-19T15:54:30.571Z,-3.18
2022-11-19T15:57:33.064Z,-3.12
2022-11-19T16:00:47.269Z,-3.21
2022-11-19T16:03:53.642Z,-3.37
2022-11-19T16:06:56.410Z,-3.27
2022-11-19T16:09:59.443Z,-2.95
2022-11-19T16:13:22.523Z,-3.02
2022-11-19T16:16:47.296Z,-3.22
2022-11-19T16:20:19.366Z,-3.16
2022-11-19T16:23:23.862Z,-3.29
2022-11-19T16:26:26.718Z,-3.30
2022-11-19T16:29:29.820Z,-3.10
2022-11-19T16:32:32.884Z,-3.38
2022-11-19T16:35:35.416Z,-3.11
2022-11-19T16:38:39.254Z,-3.16
2022-11-19T16:42:00.449Z,-3.08
2022-11-19T16:45:17.668Z,-3.16
2022-11-19T16:48:49.308Z,-2.87
2022-11-19T16:51:53.596Z,-2.90
2022-11-19T16:54:56.573Z,-3.01
2022-11-19T16:58:01.620Z,-3.15
2022-11-19T17:01:04.348Z,-2.98
2022-11-19T17:04:08.835Z,-3.12
2022-11-19T17:07:14.849Z,-3.20
2022-11-19T17:10:22.702Z,-3.11
2022-11-19T17:13:31.388Z,-3.36
2022-11-19T17:16:35.443Z,-3.10
2022-11-19T17:19:37.965Z,-3.13
2022-11-19T17:22:41.145Z,-3.09
2022-11-19T17:26:03.715Z,-3.19
2022-11-19T17:29:11.277Z,-3.23
2022-11-19T17:32:13.778Z,-3.25
2022-11-19T17:35:42.116Z,-2.90
2022-11-19T17:38:44.750Z,-3.20
2022-11-19T17:42:06.399Z,-3.08
2022-11-19T17:45:11.154Z,-3.49
2022-11-19T17:48:25.598Z,-3.51
2022-11-19T17:51:27.961Z,-3.53
2022-11-19T17:54:34.639Z,-3.62
2022-11-19T17:57:42.314Z,-3.27
2022-11-19T18:00:45.188Z,-3.40
2022-11-19T18:03:47.680Z,-3.48
2022-11-19T18:06:50.346Z,-3.55
2022-11-19T18:09:53.030Z,-3.41
2022-11-19T18:12:55.540Z,-3.36
2022-11-19T18:15:58.129Z,-3.52
2022-11-19T18:19:00.862Z,-3.44
2022-11-19T18:22:03.496Z,-3.33
2022-11-19T18:25:18.068Z,-3.29
2022-11-19T18:28:20.583Z,-3.22
2022-11-19T18:31:29.920Z,-3.37
2022-11-19T18:34:32.977Z,-3.29
2022-11-19T18:37:35.432Z,-3.32
2022-11-19T18:40:38.086Z,-3.23
2022-11-19T18:43:59.336Z,-3.27
2022-11-19T18:47:04.147Z,-3.49
2022-11-19T18:50:07.011Z,-3.54
2022-11-19T18:53:11.720Z,-3.46
2022-11-19T18:56:18.398Z,-3.30
2022-11-19T18:59:21.258Z,-3.26
2022-11-19T19:02:24.326Z,-3.15
2022-11-19T19:05:27.000Z,-3.19
2022-11-19T19:08:31.328Z,-3.25
2022-11-19T19:11:52.540Z,-3.02
2022-11-19T19:14:56.302Z,-3.20
2022-11-19T19:18:01.398Z,-3.27
2022-11-19T19:21:14.882Z,-3.48
2022-11-19T19:24:17.988Z,-3.29
2022-11-19T19:27:20.443Z,-3.47
2022-11-19T19:30:23.014Z,-3.58
2022-11-19T19:33:25.635Z,-3.32
2022-11-19T19:36:28.503Z,-3.30
2022-11-19T19:39:30.799Z,-3.22
2022-11-19T19:42:37.151Z,-3.08
2022-11-19T19:45:42.952Z,-3.22
2022-11-19T19:48:47.626Z,-3.08
2022-11-19T19:51:51.346Z,-3.12
2022-11-19T19:54:53.987Z,-3.11
2022-11-19T19:57:56.902Z,-3.31
2022-11-19T20:01:06.113Z,-3.30
2022-11-19T20:04:10.509Z,-3.14
2022-11-19T20:07:13.647Z,-3.06
2022-11-19T20:10:16.497Z,-2.97
2022-11-19T20:13:28.358Z,-3.07
2022-11-19T20:16:33.147Z,-3.07
2022-11-19T20:19:36.311Z,-2.98
2022-11-19T20:22:38.969Z,-2.97
2022-11-19T20:25:41.569Z,-3.01
2022-11-19T20:28:44.661Z,-3.18
2022-11-19T20:31:49.151Z,-3.04
2022-11-19T20:34:52.013Z,-2.94
2022-11-19T20:38:00.798Z,-2.81
2022-11-19T20:41:29.010Z,-2.94
2022-11-19T20:44:31.632Z,-2.91
2022-11-19T20:47:34.994Z,-3.02
2022-11-19T20:50:37.713Z,-2.91
2022-11-19T20:53:41.241Z,-2.80
2022-11-19T20:56:43.859Z,-2.90
2022-11-19T20:59:47.075Z,-2.80
2022-11-19T21:02:49.516Z,-2.72
2022-11-19T21:06:00.281Z,-2.67
2022-11-19T21:09:04.205Z,-2.74
2022-11-19T21:12:07.569Z,-2.69
2022-11-19T21:15:10.469Z,-2.74
2022-11-19T21:18:13.738Z,-2.65
2022-11-19T21:21:18.038Z,-2.60
2022-11-19T21:24:20.896Z,-2.72
2022-11-19T21:27:23.380Z,-2.59
2022-11-19T21:30:25.940Z,-2.79
2022-11-19T21:33:28.792Z,-2.69
2022-11-19T21:36:35.077Z,-2.57
2022-11-19T21:39:38.283Z,-2.67
2022-11-19T21:42:42.175Z,-2.55
2022-11-19T21:45:45.868Z,-2.80
2022-11-19T21:48:48.452Z,-2.65
2022-11-19T21:51:51.392Z,-2.70
2022-11-19T21:54:56.813Z,-2.71
2022-11-19T21:58:00.207Z,-2.70
2022-11-19T22:01:04.846Z,-2.69
2022-11-19T22:04:07.728Z,-2.67
2022-11-19T22:07:10.796Z,-2.59
2022-11-19T22:10:14.421Z,-3.06
2022-11-19T22:13:17.075Z,-2.65
2022-11-19T22:16:20.657Z,-2.66
2022-11-19T22:19:23.568Z,-2.84
2022-11-19T22:22:27.032Z,-2.83
2022-11-19T22:25:30.156Z,-2.71
2022-11-19T22:28:32.848Z,-3.03
2022-11-19T22:31:35.382Z,-2.82
2022-11-19T22:34:38.506Z,-2.79
2022-11-19T22:37:41.295Z,-2.65
2022-11-19T22:40:43.751Z,-2.59
2022-11-19T22:43:46.657Z,-2.62
2022-11-19T22:46:49.516Z,-2.67
2022-11-19T22:49:51.987Z,-2.63
2022-11-19T22:52:54.622Z,-2.62
2022-11-19T22:56:01.998Z,-2.61
2022-11-19T22:59:04.891Z,-2.73
2022-11-19T23:02:07.222Z,-2.73
2022-11-19T23:05:09.781Z,-2.72
2022-11-19T23:08:12.204Z,-2.61
2022-11-19T23:11:16.705Z,-2.50
2022-11-19T23:14:20.321Z,-2.56
2022-11-19T23:17:22.823Z,-2.66
2022-11-19T23:20:25.516Z,-2.56
2022-11-19T23:23:28.729Z,-2.64
2022-11-19T23:26:32.647Z,-2.53
2022-11-19T23:29:35.590Z,-2.55
2022-11-19T23:32:39.475Z,-2.75
2022-11-19T23:35:42.093Z,-2.74
2022-11-19T23:38:45.589Z,-2.74
2022-11-19T23:41:49.020Z,-2.66
2022-11-19T23:44:51.706Z,-2.70
2022-11-19T23:47:57.265Z,-2.69
2022-11-19T23:51:07.530Z,-2.70
2022-11-19T23:54:14.986Z,-2.78
2022-11-19T23:57:17.854Z,-2.54
